createdAt,value
2023-04-21T00:01:03.747Z,698.10
2023-04-21T00:03:33.996Z,687.92
2023-04-21T00:06:06.146Z,692.97
2023-04-21T00:08:38.119Z,703.38
2023-04-21T00:11:06.584Z,696.30
2023-04-21T00:13:35.213Z,699.78
2023-04-21T00:16:03.783Z,702.65
2023-04-21T00:18:32.230Z,704.97
2023-04-21T00:21:00.632Z,709.75
2023-04-21T00:23:30.440Z,703.20
2023-04-21T00:25:59.417Z,673.60
2023-04-21T00:28:27.764Z,688.65
2023-04-21T00:30:56.521Z,673.58
2023-04-21T00:33:25.203Z,639.42
2023-04-21T00:35:54.438Z,646.38
2023-04-21T00:38:22.811Z,687.55
2023-04-21T00:40:52.542Z,684.85
2023-04-21T00:43:20.895Z,669.35
2023-04-21T00:45:49.348Z,669.28
2023-04-21T00:48:17.709Z,688.45
2023-04-21T00:50:47.025Z,694.72
2023-04-21T00:53:16.456Z,680.33
2023-04-21T00:55:44.888Z,672.53
2023-04-21T00:58:14.647Z,686.03
2023-04-21T01:00:44.535Z,653.22
2023-04-21T01:03:13.314Z,684.63
2023-04-21T01:05:42.514Z,671.35
2023-04-21T01:08:11.104Z,666.45
2023-04-21T01:10:39.557Z,650.95
2023-04-21T01:13:07.966Z,654.97
2023-04-21T01:15:37.676Z,658.53
2023-04-21T01:18:06.159Z,676.42
2023-04-21T01:20:34.611Z,694.35
2023-04-21T01:23:04.614Z,669.67
2023-04-21T01:25:33.233Z,660.85
2023-04-21T01:28:01.553Z,680.90
2023-04-21T01:30:30.145Z,686.50
2023-04-21T01:33:00.234Z,668.97
2023-04-21T01:35:28.746Z,687.90
2023-04-21T01:37:57.135Z,657.92
2023-04-21T01:40:26.846Z,693.05
2023-04-21T01:42:55.665Z,660.00
2023-04-21T01:45:24.013Z,670.55
2023-04-21T01:47:52.432Z,668.70
2023-04-21T01:50:21.170Z,695.30
2023-04-21T01:52:49.539Z,684.95
2023-04-21T01:55:18.172Z,703.80
2023-04-21T01:57:47.882Z,685.33
2023-04-21T02:00:17.007Z,692.08
2023-04-21T02:02:45.490Z,657.83
2023-04-21T02:05:13.820Z,684.55
2023-04-21T02:07:42.187Z,669.53
2023-04-21T02:10:11.310Z,658.85
2023-04-21T02:12:39.697Z,683.10
2023-04-21T02:15:10.782Z,681.05
2023-04-21T02:17:41.104Z,696.33
2023-04-21T02:20:12.060Z,684.55
2023-04-21T02:22:40.595Z,696.28
2023-04-21T02:25:09.570Z,695.95
2023-04-21T02:27:37.924Z,691.25
2023-04-21T02:30:07.863Z,685.92
2023-04-21T02:32:38.016Z,688.38
2023-04-21T02:35:07.115Z,695.35
2023-04-21T02:37:35.691Z,704.30
2023-04-21T02:40:05.404Z,670.58
2023-04-21T02:42:34.977Z,677.53
2023-04-21T02:45:03.341Z,692.13
2023-04-21T02:47:31.691Z,708.22
2023-04-21T02:50:01.410Z,672.80
2023-04-21T02:52:29.777Z,668.22
2023-04-21T02:54:58.132Z,672.40
2023-04-21T02:57:26.467Z,665.05
2023-04-21T02:59:54.835Z,674.05
2023-04-21T03:02:23.274Z,684.97
2023-04-21T03:04:51.868Z,689.90
2023-04-21T03:07:21.614Z,694.78
2023-04-21T03:09:50.063Z,692.63
2023-04-21T03:12:18.377Z,706.15
2023-04-21T03:14:46.799Z,706.85
2023-04-21T03:17:15.164Z,716.17
2023-04-21T03:19:43.815Z,722.88
2023-04-21T03:22:12.184Z,698.80
2023-04-21T03:24:41.905Z,706.92
2023-04-21T03:27:11.129Z,702.60
2023-04-21T03:29:39.656Z,687.70
2023-04-21T03:32:08.067Z,681.45
2023-04-21T03:34:36.621Z,682.28
2023-04-21T03:37:05.093Z,695.53
2023-04-21T03:39:33.408Z,660.90
2023-04-21T03:42:04.858Z,649.35
2023-04-21T03:44:33.242Z,660.47
2023-04-21T03:47:03.364Z,681.97
2023-04-21T03:49:31.735Z,699.85
2023-04-21T03:52:00.076Z,815.97
2023-04-21T03:54:28.503Z,698.80
2023-04-21T03:56:56.871Z,671.67
2023-04-21T03:59:26.589Z,663.78
2023-04-21T04:01:54.921Z,686.92
2023-04-21T04:04:23.515Z,690.78
2023-04-21T04:06:52.323Z,681.65
2023-04-21T04:09:20.906Z,693.53
2023-04-21T04:11:56.091Z,670.60
2023-04-21T04:14:26.109Z,708.85
2023-04-21T04:16:56.420Z,682.97
2023-04-21T04:19:32.551Z,747.33
2023-04-21T04:22:01.336Z,673.10
2023-04-21T04:24:31.057Z,647.97
2023-04-21T04:27:00.088Z,680.03
2023-04-21T04:29:29.816Z,705.70
2023-04-21T04:32:01.019Z,676.35
2023-04-21T04:34:29.413Z,693.65
2023-04-21T04:36:58.625Z,688.08
2023-04-21T04:39:26.957Z,718.03
2023-04-21T04:41:55.308Z,698.50
2023-04-21T04:44:23.653Z,684.40
2023-04-21T04:46:54.186Z,648.10
2023-04-21T04:49:24.270Z,675.28
2023-04-21T04:51:53.023Z,679.75
2023-04-21T04:54:21.636Z,670.80
2023-04-21T04:56:50.434Z,671.00
2023-04-21T04:59:19.035Z,749.60
2023-04-21T05:01:47.388Z,704.53
2023-04-21T05:04:17.672Z,739.13
2023-04-21T05:06:46.286Z,653.05
2023-04-21T05:09:14.623Z,661.05
2023-04-21T05:11:42.994Z,713.03
2023-04-21T05:14:11.336Z,678.40
2023-04-21T05:16:39.879Z,690.72
2023-04-21T05:19:08.279Z,656.10
2023-04-21T05:21:38.014Z,687.20
2023-04-21T05:24:06.501Z,680.88
2023-04-21T05:26:34.922Z,641.33
2023-04-21T05:29:03.256Z,638.78
2023-04-21T05:31:31.723Z,615.15
2023-04-21T05:34:00.072Z,625.88
2023-04-21T05:36:30.303Z,630.08
2023-04-21T05:39:00.008Z,625.90
2023-04-21T05:41:28.374Z,647.72
2023-04-21T05:43:56.733Z,795.10
2023-04-21T05:46:25.146Z,627.80
2023-04-21T05:48:53.527Z,673.45
2023-04-21T05:51:21.937Z,654.70
2023-04-21T05:53:50.363Z,674.88
2023-04-21T05:56:20.197Z,769.83
2023-04-21T05:58:48.703Z,682.95
2023-04-21T06:01:17.047Z,583.70
2023-04-21T06:03:45.554Z,578.13
2023-04-21T06:06:14.991Z,555.58
2023-04-21T06:08:43.365Z,613.10
2023-04-21T06:11:11.825Z,627.00
2023-04-21T06:13:43.477Z,709.30
2023-04-21T06:16:12.012Z,684.25
2023-04-21T06:18:40.457Z,588.35
2023-04-21T06:21:08.856Z,554.40
2023-04-21T06:23:37.158Z,618.00
2023-04-21T06:26:07.256Z,580.03
2023-04-21T06:28:36.693Z,439.65
2023-04-21T06:31:08.977Z,426.02
2023-04-21T06:33:37.833Z,449.88
2023-04-21T06:36:07.069Z,398.45
2023-04-21T06:38:35.450Z,492.92
2023-04-21T06:41:04.564Z,514.72
2023-04-21T06:43:33.325Z,487.40
2023-04-21T06:46:01.741Z,431.10
2023-04-21T06:48:31.773Z,619.40
2023-04-21T06:51:00.546Z,503.35
2023-04-21T06:53:28.944Z,443.27
2023-04-21T06:55:57.332Z,395.10
2023-04-21T06:58:25.672Z,429.35
2023-04-21T07:00:54.075Z,405.13
2023-04-21T07:03:22.523Z,405.60
2023-04-21T07:05:52.359Z,419.55
2023-04-21T07:08:20.688Z,484.70
2023-04-21T07:10:49.017Z,436.02
2023-04-21T07:13:17.758Z,516.47
2023-04-21T07:15:46.368Z,447.35
2023-04-21T07:18:14.993Z,572.58
2023-04-21T07:20:43.402Z,418.85
2023-04-21T07:23:13.111Z,448.98
2023-04-21T07:25:41.513Z,517.40
2023-04-21T07:28:10.970Z,624.78
2023-04-21T07:30:39.538Z,590.92
2023-04-21T07:33:08.048Z,406.52
2023-04-21T07:35:36.626Z,398.42
2023-04-21T07:38:05.232Z,468.65
2023-04-21T07:40:36.174Z,458.92
2023-04-21T07:43:04.557Z,476.83
2023-04-21T07:45:32.891Z,466.65
2023-04-21T07:48:01.536Z,502.50
2023-04-21T07:50:30.211Z,533.63
2023-04-21T07:52:58.597Z,540.58
2023-04-21T07:55:26.953Z,586.05
2023-04-21T07:57:56.895Z,620.90
2023-04-21T08:00:25.418Z,527.80
2023-04-21T08:02:54.284Z,628.53
2023-04-21T08:05:22.831Z,696.13
2023-04-21T08:07:51.252Z,609.35
2023-04-21T08:10:20.247Z,488.85
2023-04-21T08:12:48.637Z,490.80
2023-04-21T08:15:18.422Z,608.75
2023-04-21T08:17:46.972Z,495.52
2023-04-21T08:20:15.537Z,489.27
2023-04-21T08:22:44.906Z,492.98
2023-04-21T08:25:14.971Z,612.38
2023-04-21T08:27:43.835Z,516.15
2023-04-21T08:30:13.168Z,493.88
2023-04-21T08:32:43.177Z,460.52
2023-04-21T08:35:11.910Z,450.05
2023-04-21T08:37:40.688Z,593.80
2023-04-21T08:40:09.915Z,510.63
2023-04-21T08:42:39.924Z,619.83
2023-04-21T08:45:09.696Z,496.10
2023-04-21T08:47:39.960Z,480.50
2023-04-21T08:50:14.533Z,442.67
2023-04-21T08:55:12.960Z,565.47
2023-04-21T08:57:41.321Z,468.98
2023-04-21T09:00:10.996Z,483.65
2023-04-21T09:03:00.700Z,467.88
2023-04-21T09:05:32.838Z,447.95
2023-04-21T09:08:10.398Z,485.35
2023-04-21T09:10:46.363Z,532.38
2023-04-21T09:13:15.641Z,431.92
2023-04-21T09:15:49.037Z,448.70
2023-04-21T09:18:18.952Z,513.80
2023-04-21T09:20:50.800Z,630.70
2023-04-21T09:23:19.460Z,653.60
2023-04-21T09:25:47.798Z,660.25
2023-04-21T09:28:16.535Z,544.05
2023-04-21T09:30:45.163Z,510.95
2023-04-21T09:33:27.981Z,514.58
2023-04-21T09:36:03.499Z,517.63
2023-04-21T09:38:31.904Z,711.17
2023-04-21T09:41:00.637Z,513.63
2023-04-21T09:43:29.355Z,753.53
2023-04-21T09:45:57.845Z,524.60
2023-04-21T09:48:28.650Z,608.70
2023-04-21T09:53:30.559Z,517.38
2023-04-21T09:56:00.496Z,493.75
2023-04-21T09:58:30.109Z,623.25
2023-04-21T10:00:59.245Z,532.83
2023-04-21T10:03:30.113Z,697.53
2023-04-21T10:06:00.199Z,578.80
2023-04-21T10:08:29.122Z,536.20
2023-04-21T10:10:57.616Z,638.33
2023-04-21T10:13:26.124Z,544.85
2023-04-21T10:16:04.005Z,475.77
2023-04-21T10:18:32.711Z,553.22
2023-04-21T10:21:06.126Z,664.50
2023-04-21T10:23:38.631Z,552.05
2023-04-21T10:26:09.972Z,622.10
2023-04-21T10:28:45.339Z,544.53
2023-04-21T10:31:23.157Z,537.53
2023-04-21T10:34:13.693Z,695.15
2023-04-21T10:36:53.021Z,554.95
2023-04-21T10:39:28.238Z,740.40
2023-04-21T10:41:58.870Z,532.70
2023-04-21T10:44:27.658Z,636.20
2023-04-21T10:46:56.466Z,557.50
2023-04-21T10:49:26.765Z,740.60
2023-04-21T10:52:12.180Z,538.75
2023-04-21T10:54:45.699Z,615.25
2023-04-21T10:57:17.129Z,558.28
2023-04-21T10:59:46.330Z,582.45
2023-04-21T11:02:15.855Z,572.15
2023-04-21T11:04:48.690Z,547.03
2023-04-21T11:07:19.678Z,659.42
2023-04-21T11:09:50.185Z,641.67
2023-04-21T11:12:19.418Z,651.60
2023-04-21T11:14:49.400Z,641.67
2023-04-21T11:17:19.287Z,677.83
2023-04-21T11:19:48.133Z,737.42
2023-04-21T11:22:19.471Z,608.88
2023-04-21T11:24:49.146Z,598.50
2023-04-21T11:27:17.904Z,569.22
2023-04-21T11:29:47.257Z,575.85
2023-04-21T11:32:16.437Z,583.90
2023-04-21T11:34:44.944Z,638.35
2023-04-21T11:37:22.508Z,656.15
2023-04-21T11:39:50.815Z,667.70
2023-04-21T11:42:23.151Z,713.22
2023-04-21T11:44:51.549Z,676.80
2023-04-21T11:47:21.499Z,640.75
2023-04-21T11:49:54.399Z,740.50
2023-04-21T11:52:25.520Z,661.55
2023-04-21T11:54:57.861Z,781.25
2023-04-21T11:57:26.813Z,626.45
2023-04-21T11:59:55.657Z,619.90
2023-04-21T12:02:26.565Z,670.78
2023-04-21T12:05:03.666Z,792.90
2023-04-21T12:07:35.352Z,661.15
2023-04-21T12:10:09.743Z,692.40
2023-04-21T12:15:07.513Z,589.65
2023-04-21T12:17:40.128Z,587.03
2023-04-21T12:20:10.141Z,825.92
2023-04-21T12:22:39.982Z,799.00
2023-04-21T12:25:09.223Z,708.58
2023-04-21T12:27:37.631Z,709.00
2023-04-21T12:30:07.057Z,680.40
2023-04-21T12:32:35.448Z,666.90
2023-04-21T12:35:05.285Z,557.97
2023-04-21T12:37:33.691Z,579.63
2023-04-21T12:40:03.492Z,630.70
2023-04-21T12:42:31.959Z,497.45
2023-04-21T12:45:00.384Z,697.78
2023-04-21T12:47:28.785Z,604.05
2023-04-21T12:49:57.386Z,602.88
2023-04-21T12:52:26.183Z,556.35
2023-04-21T12:54:54.578Z,561.85
2023-04-21T12:57:24.264Z,557.92
2023-04-21T12:59:52.596Z,554.28
2023-04-21T13:02:21.145Z,565.03
2023-04-21T13:04:49.744Z,442.27
2023-04-21T13:07:21.237Z,669.08
2023-04-21T13:09:49.622Z,578.83
2023-04-21T13:12:18.025Z,515.13
2023-04-21T13:14:47.754Z,489.60
2023-04-21T13:17:17.232Z,505.00
2023-04-21T13:19:45.752Z,570.35
2023-04-21T13:22:14.321Z,504.73
2023-04-21T13:24:42.660Z,623.75
2023-04-21T13:27:11.401Z,466.52
2023-04-21T13:29:42.764Z,435.52
2023-04-21T13:32:12.420Z,439.95
2023-04-21T13:34:40.889Z,395.38
2023-04-21T13:37:12.456Z,426.30
2023-04-21T13:39:40.987Z,502.73
2023-04-21T13:42:09.376Z,487.17
2023-04-21T13:44:37.839Z,464.10
2023-04-21T13:47:08.853Z,509.63
2023-04-21T13:49:42.630Z,433.65
2023-04-21T13:52:11.321Z,571.47
2023-04-21T13:54:39.795Z,467.50
2023-04-21T13:57:08.787Z,474.17
2023-04-21T13:59:37.390Z,473.77
2023-04-21T14:02:05.812Z,451.00
2023-04-21T14:04:34.405Z,483.80
2023-04-21T14:07:04.750Z,458.63
2023-04-21T14:09:33.470Z,389.20
2023-04-21T14:12:03.267Z,551.42
2023-04-21T14:14:38.369Z,468.55
2023-04-21T14:17:07.775Z,458.55
2023-04-21T14:19:36.875Z,430.90
2023-04-21T14:22:06.907Z,386.08
2023-04-21T14:24:35.287Z,547.55
2023-04-21T14:27:03.955Z,446.65
2023-04-21T14:29:32.542Z,498.25
2023-04-21T14:32:01.572Z,394.88
2023-04-21T14:34:30.066Z,473.77
2023-04-21T14:36:59.700Z,556.22
2023-04-21T14:39:29.410Z,529.25
2023-04-21T14:41:57.822Z,385.95
2023-04-21T14:44:26.193Z,407.50
2023-04-21T14:47:08.361Z,448.40
2023-04-21T14:49:38.685Z,389.00
2023-04-21T14:52:07.283Z,420.05
2023-04-21T14:54:37.141Z,458.45
2023-04-21T14:57:17.823Z,557.50
2023-04-21T14:59:49.333Z,482.73
2023-04-21T15:02:17.950Z,521.83
2023-04-21T15:04:46.513Z,474.85
2023-04-21T15:07:17.899Z,505.65
2023-04-21T15:09:52.109Z,472.33
2023-04-21T15:12:20.495Z,439.10
2023-04-21T15:14:49.068Z,561.40
2023-04-21T15:17:17.456Z,535.20
2023-04-21T15:19:45.786Z,514.17
2023-04-21T15:22:15.190Z,522.83
2023-04-21T15:24:43.835Z,640.65
2023-04-21T15:27:13.554Z,530.05
2023-04-21T15:29:42.115Z,549.92
2023-04-21T15:32:10.749Z,470.02
2023-04-21T15:34:39.075Z,534.13
2023-04-21T15:37:07.460Z,653.00
2023-04-21T15:39:35.985Z,531.38
2023-04-21T15:42:04.966Z,605.08
2023-04-21T15:44:34.924Z,530.92
2023-04-21T15:47:03.438Z,501.33
2023-04-21T15:49:31.952Z,667.78
2023-04-21T15:52:00.484Z,558.17
2023-04-21T15:54:28.991Z,594.58
2023-04-21T15:56:57.625Z,579.50
2023-04-21T15:59:26.279Z,675.45
2023-04-21T16:01:56.872Z,562.55
2023-04-21T16:04:25.808Z,595.13
2023-04-21T16:06:54.287Z,513.33
2023-04-21T16:09:23.181Z,736.50
2023-04-21T16:11:51.869Z,520.13
2023-04-21T16:14:20.434Z,527.28
2023-04-21T16:16:48.827Z,511.98
2023-04-21T16:19:18.766Z,661.70
2023-04-21T16:21:47.196Z,600.20
2023-04-21T16:24:15.613Z,550.40
2023-04-21T16:26:44.050Z,608.20
2023-04-21T16:29:12.669Z,562.47
2023-04-21T16:31:41.121Z,624.67
2023-04-21T16:34:09.614Z,641.15
2023-04-21T16:36:39.663Z,605.78
2023-04-21T16:39:09.143Z,663.45
2023-04-21T16:41:37.526Z,683.13
2023-04-21T16:44:06.020Z,711.45
2023-04-21T16:46:34.611Z,703.47
2023-04-21T16:49:03.217Z,676.03
2023-04-21T16:51:31.994Z,636.70
2023-04-21T16:54:01.714Z,643.00
2023-04-21T16:56:29.988Z,689.20
2023-04-21T16:58:58.343Z,710.95
2023-04-21T17:01:44.653Z,915.08
2023-04-21T17:04:14.139Z,688.15
2023-04-21T17:06:42.707Z,713.05
2023-04-21T17:09:12.512Z,806.63
2023-04-21T17:11:40.953Z,692.55
2023-04-21T17:14:09.267Z,802.55
2023-04-21T17:16:37.727Z,689.33
2023-04-21T17:19:06.798Z,747.33
2023-04-21T17:21:35.883Z,707.13
2023-04-21T17:24:04.595Z,825.55
2023-04-21T17:26:34.803Z,749.83
2023-04-21T17:29:03.190Z,734.13
2023-04-21T17:31:32.939Z,725.85
2023-04-21T17:34:01.309Z,721.25
2023-04-21T17:36:30.606Z,728.60
2023-04-21T17:38:59.305Z,717.40
2023-04-21T17:41:28.153Z,796.95
2023-04-21T17:43:58.806Z,886.88
2023-04-21T17:46:27.543Z,754.17
2023-04-21T17:48:56.210Z,801.92
2023-04-21T17:51:24.779Z,727.25
2023-04-21T17:53:53.792Z,735.95
2023-04-21T17:56:22.446Z,628.30
2023-04-21T17:58:52.359Z,634.95
2023-04-21T18:01:22.376Z,718.35
2023-04-21T18:03:53.728Z,571.97
2023-04-21T18:06:22.949Z,553.58
2023-04-21T18:08:51.998Z,526.47
2023-04-21T18:11:20.576Z,551.75
2023-04-21T18:13:48.992Z,514.03
2023-04-21T18:16:17.508Z,518.83
2023-04-21T18:18:47.749Z,639.38
2023-04-21T18:21:16.301Z,493.88
2023-04-21T18:23:44.908Z,550.83
2023-04-21T18:26:13.344Z,612.45
2023-04-21T18:28:41.711Z,598.15
2023-04-21T18:31:10.702Z,578.30
2023-04-21T18:33:39.270Z,602.10
2023-04-21T18:36:09.472Z,561.83
2023-04-21T18:38:37.864Z,823.75
2023-04-21T18:41:06.506Z,626.45
2023-04-21T18:43:34.908Z,613.25
2023-04-21T18:46:03.288Z,630.40
2023-04-21T18:48:31.768Z,661.40
2023-04-21T18:51:00.307Z,617.88
2023-04-21T18:53:30.088Z,595.25
2023-04-21T18:55:58.476Z,586.15
2023-04-21T18:58:26.846Z,628.88
2023-04-21T19:00:55.925Z,705.00
2023-04-21T19:03:25.140Z,649.88
2023-04-21T19:05:53.685Z,653.78
2023-04-21T19:08:38.309Z,577.65
2023-04-21T19:11:12.293Z,558.40
2023-04-21T19:13:40.780Z,622.03
2023-04-21T19:16:11.293Z,672.33
2023-04-21T19:18:39.937Z,640.13
2023-04-21T19:21:12.694Z,710.10
2023-04-21T19:23:41.646Z,677.03
2023-04-21T19:26:11.952Z,623.20
2023-04-21T19:28:41.111Z,602.97
2023-04-21T19:31:09.614Z,611.85
2023-04-21T19:33:37.969Z,622.53
2023-04-21T19:36:07.454Z,650.30
2023-04-21T19:38:36.182Z,584.97
2023-04-21T19:41:04.536Z,547.33
2023-04-21T19:43:34.230Z,564.15
2023-04-21T19:46:02.664Z,612.60
2023-04-21T19:48:31.365Z,543.30
2023-04-21T19:50:59.861Z,619.78
2023-04-21T19:53:28.213Z,758.10
2023-04-21T19:55:56.669Z,637.80
2023-04-21T19:58:38.803Z,611.45
2023-04-21T20:01:10.685Z,522.50
2023-04-21T20:03:39.331Z,567.95
2023-04-21T20:06:08.061Z,601.85
2023-04-21T20:08:36.889Z,571.38
2023-04-21T20:11:05.248Z,607.45
2023-04-21T20:13:33.602Z,586.63
2023-04-21T20:16:02.090Z,590.20
2023-04-21T20:18:31.806Z,584.10
2023-04-21T20:21:00.289Z,589.53
2023-04-21T20:23:29.050Z,543.90
2023-04-21T20:25:58.002Z,611.25
2023-04-21T20:28:27.571Z,622.97
2023-04-21T20:30:56.967Z,575.25
2023-04-21T20:33:25.475Z,683.17
2023-04-21T20:35:55.560Z,665.50
2023-04-21T20:38:24.606Z,617.95
2023-04-21T20:40:53.856Z,621.70
2023-04-21T20:43:22.345Z,586.30
2023-04-21T20:45:50.747Z,619.00
2023-04-21T20:48:19.046Z,615.53
2023-04-21T20:50:49.839Z,611.10
2023-04-21T20:53:21.147Z,598.28
2023-04-21T20:55:50.331Z,523.70
2023-04-21T20:58:18.852Z,582.13
2023-04-21T21:00:48.075Z,695.83
2023-04-21T21:03:17.376Z,673.58
2023-04-21T21:05:45.864Z,661.22
2023-04-21T21:08:15.081Z,613.78
2023-04-21T21:10:44.961Z,576.28
2023-04-21T21:13:13.414Z,575.95
2023-04-21T21:15:42.138Z,509.90
2023-04-21T21:18:10.556Z,495.35
2023-04-21T21:20:39.011Z,551.72
2023-04-21T21:23:07.574Z,509.65
2023-04-21T21:25:36.297Z,538.38
2023-04-21T21:28:06.394Z,596.65
2023-04-21T21:30:34.737Z,557.45
2023-04-21T21:33:03.101Z,501.10
2023-04-21T21:35:31.533Z,599.63
2023-04-21T21:37:59.967Z,645.50
2023-04-21T21:40:28.445Z,531.95
2023-04-21T21:42:56.755Z,511.88
2023-04-21T21:45:26.557Z,558.78
2023-04-21T21:47:54.947Z,553.22
2023-04-21T21:50:23.241Z,568.38
2023-04-21T21:52:51.678Z,537.17
2023-04-21T21:55:20.331Z,562.83
2023-04-21T21:57:48.871Z,610.95
2023-04-21T22:00:18.675Z,631.97
2023-04-21T22:02:48.531Z,657.80
2023-04-21T22:05:17.246Z,574.80
2023-04-21T22:07:45.957Z,576.22
2023-04-21T22:10:14.402Z,527.17
2023-04-21T22:12:42.788Z,541.22
2023-04-21T22:15:12.233Z,521.60
2023-04-21T22:17:41.081Z,539.38
2023-04-21T22:20:12.939Z,469.23
2023-04-21T22:22:41.365Z,525.75
2023-04-21T22:25:10.798Z,538.53
2023-04-21T22:27:39.746Z,528.63
2023-04-21T22:30:09.185Z,543.42
2023-04-21T22:32:37.595Z,487.77
2023-04-21T22:35:06.610Z,508.73
2023-04-21T22:37:36.861Z,619.90
2023-04-21T22:40:06.023Z,472.63
2023-04-21T22:42:34.977Z,491.63
2023-04-21T22:45:05.168Z,538.85
2023-04-21T22:47:33.806Z,544.28
2023-04-21T22:50:02.183Z,597.90
2023-04-21T22:52:30.681Z,525.05
2023-04-21T22:55:00.413Z,563.90
2023-04-21T22:57:29.069Z,607.85
2023-04-21T22:59:57.395Z,601.42
2023-04-21T23:02:25.978Z,593.28
2023-04-21T23:04:55.072Z,644.25
2023-04-21T23:07:23.433Z,615.42
2023-04-21T23:09:52.128Z,626.90
2023-04-21T23:12:21.897Z,629.22
2023-04-21T23:14:50.268Z,635.05
2023-04-21T23:17:18.611Z,634.08
2023-04-21T23:19:46.906Z,619.92
2023-04-21T23:22:15.314Z,611.42
2023-04-21T23:24:43.604Z,637.78
2023-04-21T23:27:11.986Z,600.58
2023-04-21T23:29:41.844Z,625.75
2023-04-21T23:32:10.380Z,624.88
2023-04-21T23:34:38.756Z,610.92
2023-04-21T23:37:07.117Z,579.67
2023-04-21T23:39:35.635Z,547.20
2023-04-21T23:42:04.677Z,587.08
2023-04-21T23:44:33.337Z,573.30
2023-04-21T23:47:03.787Z,535.58
2023-04-21T23:49:32.760Z,597.15
2023-04-21T23:52:01.169Z,574.72
2023-04-21T23:54:29.720Z,565.55
2023-04-21T23:56:58.327Z,519.67
2023-04-21T23:59:26.783Z,525.15
